This is the latest recevied weather packets stored in our database for station/object HA6IFZ-10. If no packets are shown the sender has not sent any weather packets the latest 10 day(s).
| Time | Temp. | Humidity | Pressure | Rain* | Wind** | Luminosity | Snow |
|---|---|---|---|---|---|---|---|
| 1787816885 | 24.44° C | 41% | 1028 hPa | - | - | - | - |
| 1787815985 | 25° C | 40% | 1028.1 hPa | - | - | - | - |
| 1787815085 | 25° C | 41% | 1028 hPa | - | - | - | - |
| 1787814185 | 24.44° C | 45% | 1027.9 hPa | - | - | - | - |
| 1787813285 | 21.67° C | 51% | 1027.9 hPa | - | - | - | - |
| 1787812385 | 22.22° C | 47% | 1027.8 hPa | - | - | - | - |
| 1787811485 | 22.78° C | 46% | 1027.8 hPa | - | - | - | - |
| 1787810585 | 23.89° C | 41% | 1027.4 hPa | - | - | - | - |
| 1787809684 | 32.22° C | 26% | 1027.4 hPa | - | - | - | - |
| 1787808784 | 30.56° C | 29% | 1027.3 hPa | - | - | - | - |
| 1787807884 | 29.44° C | 30% | 1027.4 hPa | - | - | - | - |
| 1787806085 | 25.56° C | 37% | 1027.3 hPa | - | - | - | - |
| 1787805185 | 22.78° C | 44% | 1027.1 hPa | - | - | - | - |
| 1787804285 | 20° C | 52% | 1027.1 hPa | - | - | - | - |
| 1787803385 | 17.22° C | 61% | 1027 hPa | - | - | - | - |
| 1787802485 | 16.67° C | 63% | 1027.1 hPa | - | - | - | - |
| 1787801585 | 16.67° C | 63% | 1027.2 hPa | - | - | - | - |
| 1787800684 | 16.67° C | 62% | 1027.2 hPa | - | - | - | - |
| 1787799784 | 17.22° C | 60% | 1027.2 hPa | - | - | - | - |
| 1787798884 | 17.78° C | 59% | 1027.1 hPa | - | - | - | - |
| 1787797984 | 18.33° C | 55% | 1027.2 hPa | - | - | - | - |
| 1787797084 | 18.89° C | 52% | 1027.1 hPa | - | - | - | - |
| 1787796184 | 18.89° C | 53% | 1027.1 hPa | - | - | - | - |
| 1787795284 | 18.89° C | 55% | 1027.1 hPa | - | - | - | - |
| 1787794384 | 19.44° C | 54% | 1027.1 hPa | - | - | - | - |
* Rain since midnight (hover to see other rain measurements)
** Current wind speed in m/s (hover to see current wind gust speed)